Time;durP1;ratioP1;P1;durP2;ratioP2;P2;SDS_P1;SDS_P2;PMS_P1;PMS_P2;Temp;Humidity;BMP_temperature;BMP_pressure;BME280_temperature;BME280_humidity;BME280_pressure;Samples;Min_cycle;Max_cycle;Signal;HPM_P1;HPM_P2
2021/10/24 00:01:44;;;;;;;75.57;53.50;;;14.70;80.50;;;;;;5046449;28;20037;-69
2021/10/24 00:04:09;;;;;;;84.68;56.80;;;14.70;81.10;;;;;;5052638;28;20059;-70
2021/10/24 00:06:35;;;;;;;81.30;55.88;;;14.60;81.70;;;;;;5051577;28;20032;-70
2021/10/24 00:09:00;;;;;;;78.50;54.17;;;14.60;80.50;;;;;;5053418;28;20402;-70
2021/10/24 00:11:26;;;;;;;77.90;55.38;;;14.60;80.30;;;;;;5051010;28;20036;-69
2021/10/24 00:13:51;;;;;;;78.82;54.25;;;14.70;80.40;;;;;;5053448;28;20025;-70
2021/10/24 00:16:17;;;;;;;77.35;52.88;;;14.70;80.00;;;;;;5048659;28;20056;-70
2021/10/24 00:18:43;;;;;;;76.13;53.25;;;14.70;79.70;;;;;;5033644;28;20025;-70
2021/10/24 00:21:08;;;;;;;76.60;53.53;;;14.80;79.60;;;;;;5033901;28;20172;-69
2021/10/24 00:23:35;;;;;;;71.97;52.90;;;15.00;78.60;;;;;;5053331;28;20027;-69
2021/10/24 00:26:00;;;;;;;77.85;52.67;;;15.10;78.10;;;;;;5051443;28;20025;-69
2021/10/24 00:28:26;;;;;;;78.93;54.92;;;15.00;77.50;;;;;;5053155;28;20025;-70
2021/10/24 00:30:52;;;;;;;73.90;52.47;;;15.10;77.10;;;;;;5046619;28;20041;-70
2021/10/24 00:33:18;;;;;;;77.00;53.33;;;15.00;76.90;;;;;;5032997;28;20116;-70
2021/10/24 00:35:44;;;;;;;75.78;51.95;;;15.10;76.70;;;;;;5031689;28;20232;-70
2021/10/24 00:38:10;;;;;;;77.82;52.05;;;15.10;76.70;;;;;;5048820;28;20043;-70
2021/10/24 00:40:36;;;;;;;74.50;52.58;;;15.10;76.50;;;;;;5053041;28;20104;-69
2021/10/24 00:43:02;;;;;;;75.50;51.83;;;15.10;76.90;;;;;;5035841;28;20422;-70
2021/10/24 00:45:28;;;;;;;69.78;51.80;;;15.10;76.80;;;;;;5033368;28;20041;-70
2021/10/24 00:47:54;;;;;;;71.75;49.83;;;15.20;76.90;;;;;;5046461;28;20108;-69
2021/10/24 00:50:25;;;;;;;69.82;47.63;;;15.20;76.60;;;;;;5051664;28;20395;-70
2021/10/24 00:52:52;;;;;;;68.13;47.22;;;15.20;76.10;;;;;;5037361;28;20489;-69
2021/10/24 00:55:21;;;;;;;66.53;47.05;;;15.20;75.90;;;;;;5032831;28;20052;-69
2021/10/24 00:57:47;;;;;;;58.53;43.25;;;15.20;76.00;;;;;;5044829;28;20032;-69
2021/10/24 01:00:22;;;;;;;65.03;44.85;;;15.20;75.80;;;;;;5051521;28;20367;-69
2021/10/24 01:02:48;;;;;;;63.05;43.70;;;15.10;75.30;;;;;;5045266;28;20018;-70
2021/10/24 01:05:15;;;;;;;56.22;40.08;;;15.00;75.80;;;;;;5032730;28;20037;-70
2021/10/24 01:07:44;;;;;;;60.10;42.28;;;15.00;75.50;;;;;;5030907;28;20025;-70
2021/10/24 01:10:15;;;;;;;54.03;39.10;;;15.10;75.00;;;;;;5032634;28;20051;-70
2021/10/24 01:12:46;;;;;;;56.67;39.88;;;15.10;75.20;;;;;;5043768;28;20033;-69
2021/10/24 01:15:12;;;;;;;59.78;41.97;;;15.10;74.90;;;;;;5051419;28;20393;-69
2021/10/24 01:17:38;;;;;;;56.17;40.45;;;15.20;74.80;;;;;;5038774;28;20033;-70
2021/10/24 01:20:04;;;;;;;53.80;37.78;;;15.10;74.50;;;;;;5031497;28;20120;-70
2021/10/24 01:22:30;;;;;;;54.58;37.63;;;15.20;73.90;;;;;;5041862;28;20060;-70
2021/10/24 01:24:56;;;;;;;50.25;36.33;;;15.10;74.40;;;;;;5027871;28;20053;-69
2021/10/24 01:27:22;;;;;;;53.78;37.08;;;15.10;74.10;;;;;;5040123;28;20032;-70
2021/10/24 01:33:12;;;;;;;52.25;34.67;;;15.10;72.50;;;;;;5027733;28;20037;-69
2021/10/24 01:35:51;;;;;;;51.25;35.17;;;15.10;73.10;;;;;;5030166;28;20057;-69
2021/10/24 01:38:16;;;;;;;49.00;33.85;;;15.10;72.70;;;;;;5034478;28;20018;-69
2021/10/24 01:40:42;;;;;;;45.80;31.95;;;15.10;72.20;;;;;;5032730;28;20036;-69
2021/10/24 01:43:07;;;;;;;48.28;32.78;;;15.00;71.70;;;;;;5030823;28;20018;-69
2021/10/24 01:45:33;;;;;;;43.55;31.23;;;15.00;71.40;;;;;;5031165;28;20026;-69
2021/10/24 01:47:59;;;;;;;39.50;29.10;;;15.10;71.00;;;;;;5036991;28;20454;-69
2021/10/24 01:50:25;;;;;;;41.97;30.63;;;15.10;70.40;;;;;;5056104;28;20028;-69
2021/10/24 01:52:56;;;;;;;46.35;31.75;;;15.00;70.00;;;;;;5050184;28;20115;-69
2021/10/24 01:55:22;;;;;;;43.10;30.30;;;15.00;67.90;;;;;;5036029;28;20041;-69
2021/10/24 01:57:51;;;;;;;39.55;28.40;;;14.90;70.00;;;;;;5038197;28;20040;-69
2021/10/24 02:00:17;;;;;;;36.65;26.52;;;14.90;67.30;;;;;;5056230;28;20475;-69
2021/10/24 02:02:43;;;;;;;39.50;27.60;;;14.90;68.80;;;;;;5052430;28;20040;-69
2021/10/24 02:05:09;;;;;;;38.40;26.52;;;14.90;68.80;;;;;;5052955;28;20360;-68
2021/10/24 02:07:35;;;;;;;42.28;27.15;;;14.90;68.80;;;;;;5045884;28;20033;-69
2021/10/24 02:10:03;;;;;;;37.75;26.52;;;14.80;68.20;;;;;;5035839;28;20064;-69
2021/10/24 02:12:28;;;;;;;40.13;26.05;;;14.90;68.10;;;;;;5035061;28;20104;-68
2021/10/24 02:14:54;;;;;;;34.63;25.88;;;14.90;68.30;;;;;;5018415;28;20571;-69
2021/10/24 02:17:19;;;;;;;32.60;25.20;;;14.80;68.10;;;;;;5030870;28;20037;-69
2021/10/24 02:19:45;;;;;;;35.53;25.98;;;14.90;67.80;;;;;;5053790;28;20041;-68
2021/10/24 02:22:11;;;;;;;33.58;26.08;;;14.70;67.60;;;;;;5054527;28;20033;-69
2021/10/24 02:24:37;;;;;;;34.63;24.02;;;14.80;67.30;;;;;;5035827;28;20425;-68
2021/10/24 02:27:03;;;;;;;29.67;23.05;;;14.80;67.70;;;;;;5035798;28;20033;-69
2021/10/24 02:29:29;;;;;;;34.45;25.50;;;14.80;67.40;;;;;;5050035;28;20057;-69
2021/10/24 02:31:54;;;;;;;38.35;25.42;;;14.80;67.40;;;;;;5053708;28;20068;-68
2021/10/24 02:34:20;;;;;;;35.28;24.98;;;14.80;67.60;;;;;;5048485;28;20025;-68
2021/10/24 02:36:45;;;;;;;32.25;23.42;;;14.80;66.60;;;;;;5052120;28;20044;-68
2021/10/24 02:39:31;;;;;;;30.50;22.02;;;14.90;66.50;;;;;;5039507;28;20037;-68
2021/10/24 02:42:09;;;;;;;35.67;24.02;;;14.90;65.50;;;;;;5042115;28;20039;-68
2021/10/24 02:44:34;;;;;;;31.65;23.73;;;14.90;66.60;;;;;;5052077;28;20078;-68
2021/10/24 02:47:00;;;;;;;29.75;22.10;;;14.80;66.00;;;;;;5054874;28;20484;-68
2021/10/24 02:49:27;;;;;;;30.67;22.25;;;14.70;66.00;;;;;;5036447;28;20025;-69
2021/10/24 02:51:54;;;;;;;32.30;22.45;;;14.80;66.10;;;;;;5035801;28;20021;-69
2021/10/24 02:54:20;;;;;;;30.33;22.50;;;14.80;65.30;;;;;;5052711;28;20029;-68
2021/10/24 02:56:46;;;;;;;33.67;21.40;;;14.80;64.80;;;;;;5053507;28;20036;-68
2021/10/24 02:59:12;;;;;;;28.25;19.95;;;14.70;65.00;;;;;;5039920;28;20517;-68
2021/10/24 03:01:38;;;;;;;26.67;19.33;;;14.80;64.40;;;;;;5034156;28;20029;-68
2021/10/24 03:04:04;;;;;;;26.98;19.83;;;14.80;64.50;;;;;;5035550;28;20467;-68
2021/10/24 03:06:31;;;;;;;33.35;21.55;;;14.70;62.80;;;;;;5033538;28;20391;-68
2021/10/24 03:08:56;;;;;;;28.63;21.00;;;14.80;64.00;;;;;;5033778;28;20029;-68
2021/10/24 03:11:22;;;;;;;28.13;19.92;;;14.80;64.00;;;;;;5034819;28;20033;-69
2021/10/24 03:13:48;;;;;;;26.63;18.67;;;14.70;64.30;;;;;;5033536;28;20029;-68
2021/10/24 03:16:14;;;;;;;28.50;19.35;;;14.70;64.10;;;;;;5034302;28;20041;-68
2021/10/24 03:18:39;;;;;;;24.85;18.42;;;14.70;63.60;;;;;;5040999;28;20029;-68
2021/10/24 03:21:05;;;;;;;24.08;17.38;;;14.80;63.70;;;;;;5054226;28;20430;-68
2021/10/24 03:23:31;;;;;;;23.30;17.67;;;14.80;63.00;;;;;;5046624;28;20376;-69
2021/10/24 03:25:57;;;;;;;24.25;17.92;;;14.80;62.90;;;;;;5033080;28;20037;-68
2021/10/24 03:28:26;;;;;;;20.15;15.50;;;14.70;62.80;;;;;;5037770;28;20021;-70
2021/10/24 03:30:52;;;;;;;26.48;17.40;;;14.70;61.90;;;;;;5054262;28;20105;-68
2021/10/24 03:33:17;;;;;;;22.92;16.67;;;14.60;60.20;;;;;;5047277;28;20475;-69
2021/10/24 03:35:44;;;;;;;20.95;16.20;;;14.60;62.00;;;;;;5032411;28;20522;-68
2021/10/24 03:38:10;;;;;;;22.60;16.65;;;14.70;61.90;;;;;;5035000;28;20100;-68
2021/10/24 03:40:36;;;;;;;20.17;15.60;;;14.70;61.90;;;;;;5053999;28;20109;-69
2021/10/24 03:43:02;;;;;;;21.73;16.20;;;14.70;61.30;;;;;;5051461;28;20470;-68
2021/10/24 03:45:29;;;;;;;19.60;14.77;;;14.60;61.00;;;;;;5033904;28;20120;-69
2021/10/24 03:47:54;;;;;;;19.73;14.55;;;14.60;61.20;;;;;;5031716;28;20029;-69
2021/10/24 03:50:20;;;;;;;22.80;14.88;;;14.60;60.80;;;;;;5046369;28;20036;-69
2021/10/24 03:52:51;;;;;;;17.70;14.02;;;14.60;60.80;;;;;;5032154;28;20100;-69
2021/10/24 03:55:26;;;;;;;18.73;13.07;;;14.60;59.70;;;;;;5032765;28;20037;-69
2021/10/24 03:57:51;;;;;;;18.95;13.07;;;14.70;59.50;;;;;;5033607;28;20055;-69
2021/10/24 04:00:17;;;;;;;20.05;13.55;;;14.70;60.10;;;;;;5044641;28;20116;-69
2021/10/24 04:02:59;;;;;;;16.55;12.18;;;14.70;60.00;;;;;;5033784;28;20036;-69
2021/10/24 04:05:26;;;;;;;18.50;12.80;;;14.70;59.40;;;;;;5045298;28;20032;-69
2021/10/24 04:07:54;;;;;;;20.17;12.93;;;14.80;59.30;;;;;;5013795;28;20018;-68
2021/10/24 04:10:26;;;;;;;16.83;12.15;;;14.80;59.60;;;;;;5051699;28;20037;-68
2021/10/24 04:12:56;;;;;;;18.40;12.30;;;14.70;59.20;;;;;;5041442;28;20029;-69
2021/10/24 04:15:23;;;;;;;15.95;11.98;;;14.80;58.20;;;;;;5031205;28;20041;-69
2021/10/24 04:17:48;;;;;;;17.00;11.52;;;14.90;58.80;;;;;;5033466;28;20048;-68
2021/10/24 04:20:18;;;;;;;16.23;12.45;;;14.80;59.00;;;;;;5032380;28;20026;-68
2021/10/24 04:22:44;;;;;;;16.48;11.70;;;14.90;58.50;;;;;;5033593;28;20052;-68
2021/10/24 04:25:11;;;;;;;16.85;12.70;;;14.80;58.80;;;;;;5032300;28;20026;-68
2021/10/24 04:27:37;;;;;;;15.90;11.30;;;14.80;57.70;;;;;;5034886;28;20040;-68
2021/10/24 04:30:06;;;;;;;14.35;10.68;;;14.90;57.40;;;;;;5047411;28;20079;-69
2021/10/24 04:32:32;;;;;;;17.08;10.80;;;14.90;57.50;;;;;;5053112;28;20036;-68
2021/10/24 04:34:58;;;;;;;15.63;10.95;;;14.90;57.40;;;;;;5035387;28;20407;-69
2021/10/24 04:37:24;;;;;;;16.00;11.38;;;14.80;57.50;;;;;;5031812;28;20030;-69
2021/10/24 04:39:49;;;;;;;13.98;9.70;;;14.80;57.20;;;;;;5044489;28;20025;-68
2021/10/24 04:42:15;;;;;;;13.02;9.40;;;14.80;56.70;;;;;;5051622;28;20021;-68
2021/10/24 04:44:41;;;;;;;12.07;9.57;;;14.80;56.20;;;;;;5039462;28;20026;-68
2021/10/24 04:47:07;;;;;;;9.88;7.43;;;14.80;55.80;;;;;;5031404;28;20026;-68
2021/10/24 04:49:33;;;;;;;10.15;8.38;;;14.80;55.70;;;;;;5033589;28;20025;-69
2021/10/24 04:51:59;;;;;;;13.75;8.60;;;14.80;54.90;;;;;;5052035;28;20028;-68
2021/10/24 04:54:25;;;;;;;10.35;7.78;;;14.80;54.40;;;;;;5029830;28;20030;-68
2021/10/24 04:56:51;;;;;;;11.43;8.00;;;14.80;55.40;;;;;;5012478;28;20029;-68
2021/10/24 04:59:18;;;;;;;11.52;8.35;;;14.80;55.00;;;;;;5021012;28;20040;-69
2021/10/24 05:01:48;;;;;;;9.35;8.13;;;14.80;54.80;;;;;;5032619;28;20025;-68
2021/10/24 05:04:13;;;;;;;9.82;7.60;;;14.70;54.40;;;;;;5034496;28;20538;-68
2021/10/24 05:06:39;;;;;;;11.98;8.43;;;14.80;54.90;;;;;;5031830;28;20025;-68
2021/10/24 05:09:05;;;;;;;9.82;7.95;;;14.80;55.20;;;;;;5030383;28;20526;-68
2021/10/24 05:11:31;;;;;;;12.07;7.20;;;14.80;55.00;;;;;;5032490;28;20051;-68
2021/10/24 05:14:00;;;;;;;12.15;8.55;;;14.80;54.80;;;;;;5035555;28;20033;-69
2021/10/24 05:16:25;;;;;;;11.68;7.65;;;14.70;54.70;;;;;;5052427;28;20033;-69
2021/10/24 05:18:54;;;;;;;11.05;8.80;;;14.70;54.60;;;;;;5044661;28;20026;-69
2021/10/24 05:21:20;;;;;;;14.05;7.97;;;14.80;54.60;;;;;;5032494;28;20467;-69
2021/10/24 05:24:38;;;;;;;10.05;7.15;;;14.80;54.90;;;;;;5037952;28;20040;-69
2021/10/24 05:27:34;;;;;;;10.98;6.70;;;14.80;53.10;;;;;;5016514;28;20029;-68
2021/10/24 05:30:00;;;;;;;10.02;6.50;;;14.80;54.10;;;;;;5032335;28;20040;-68
2021/10/24 05:32:26;;;;;;;8.25;5.93;;;14.70;53.90;;;;;;5036638;28;20022;-68
2021/10/24 05:34:51;;;;;;;8.10;6.20;;;14.60;53.00;;;;;;5034795;28;20445;-68
2021/10/24 05:37:17;;;;;;;9.63;5.72;;;14.70;54.40;;;;;;5056479;28;20053;-68
2021/10/24 05:39:42;;;;;;;9.38;6.25;;;14.70;54.90;;;;;;5056209;28;20039;-68
2021/10/24 05:42:08;;;;;;;9.93;6.32;;;14.80;55.20;;;;;;5031355;28;20029;-68
2021/10/24 05:44:33;;;;;;;7.00;4.80;;;14.70;55.70;;;;;;5035670;28;20033;-68
2021/10/24 05:46:59;;;;;;;7.20;4.82;;;14.70;55.40;;;;;;5052230;28;20051;-67
2021/10/24 05:49:25;;;;;;;6.35;4.60;;;14.70;53.90;;;;;;5056101;28;20082;-68
2021/10/24 05:51:52;;;;;;;6.10;4.88;;;14.70;53.50;;;;;;5038763;28;20356;-68
2021/10/24 05:54:18;;;;;;;5.93;4.97;;;14.70;52.70;;;;;;5035859;28;20038;-68
2021/10/24 05:56:43;;;;;;;7.07;5.43;;;14.80;52.70;;;;;;5039229;28;20048;-68
2021/10/24 05:59:09;;;;;;;6.65;4.68;;;14.60;52.90;;;;;;5035915;28;20386;-68
2021/10/24 06:01:34;;;;;;;6.03;4.75;;;14.70;54.80;;;;;;5047497;28;20528;-68
2021/10/24 06:04:00;;;;;;;7.80;5.35;;;14.70;58.10;;;;;;5035992;28;20037;-68
2021/10/24 06:06:26;;;;;;;8.38;5.28;;;14.60;53.10;;;;;;5034804;28;20029;-68
2021/10/24 06:08:53;;;;;;;6.18;4.47;;;14.60;53.20;;;;;;5035878;28;20039;-68
2021/10/24 06:13:48;;;;;;;8.57;5.20;;;;;;;;;;5035436;28;20036;-68
2021/10/24 06:16:15;;;;;;;5.65;4.55;;;14.20;84.20;;;;;;5034401;28;20132;-68
2021/10/24 06:18:41;;;;;;;7.25;4.85;;;14.50;65.90;;;;;;5035537;28;20108;-68
2021/10/24 06:21:07;;;;;;;5.70;4.22;;;14.50;61.00;;;;;;5040536;28;20521;-68
2021/10/24 06:23:33;;;;;;;5.78;4.82;;;14.60;56.20;;;;;;5034099;28;20029;-68
2021/10/24 06:25:59;;;;;;;4.72;4.22;;;14.60;52.70;;;;;;5040288;28;20052;-68
2021/10/24 06:28:25;;;;;;;5.25;4.57;;;14.60;52.10;;;;;;5034918;28;20025;-69
2021/10/24 06:30:50;;;;;;;7.75;5.05;;;14.60;52.00;;;;;;5039487;28;20029;-68
2021/10/24 06:33:17;;;;;;;6.95;4.65;;;14.60;51.50;;;;;;5052816;28;20121;-68
2021/10/24 06:35:43;;;;;;;4.85;4.20;;;14.70;51.70;;;;;;5031709;28;20049;-68
2021/10/24 06:38:10;;;;;;;5.70;3.92;;;14.60;50.80;;;;;;5033508;28;20493;-68
2021/10/24 06:40:36;;;;;;;5.13;4.63;;;14.70;50.70;;;;;;5036561;28;20071;-69
2021/10/24 06:43:01;;;;;;;5.82;4.15;;;14.70;50.60;;;;;;5042083;28;20057;-68
2021/10/24 06:45:27;;;;;;;7.13;4.25;;;14.60;49.50;;;;;;5033767;28;20088;-68
2021/10/24 06:47:53;;;;;;;6.32;4.25;;;14.70;49.80;;;;;;5024228;28;20394;-68
2021/10/24 06:50:19;;;;;;;8.38;4.45;;;14.80;49.00;;;;;;5031901;28;20095;-68
2021/10/24 06:52:44;;;;;;;6.32;3.75;;;14.80;49.50;;;;;;5032727;28;20391;-68
2021/10/24 06:55:10;;;;;;;6.63;4.32;;;14.70;49.20;;;;;;5037291;28;20033;-68
2021/10/24 06:57:51;;;;;;;7.38;4.53;;;14.70;49.10;;;;;;5034524;28;20430;-68
2021/10/24 07:00:19;;;;;;;6.15;4.03;;;14.90;49.30;;;;;;5026188;28;20026;-68
2021/10/24 07:02:44;;;;;;;7.55;3.80;;;14.90;48.50;;;;;;5034464;28;20079;-68
2021/10/24 07:05:10;;;;;;;4.28;3.22;;;14.90;48.20;;;;;;5034366;28;20037;-68
2021/10/24 07:07:36;;;;;;;6.65;4.07;;;14.90;47.60;;;;;;5034593;28;20033;-68
2021/10/24 07:10:02;;;;;;;5.93;3.40;;;15.00;47.20;;;;;;5033241;28;20129;-68
2021/10/24 07:12:28;;;;;;;4.03;3.20;;;15.00;47.00;;;;;;5033472;28;20091;-68
2021/10/24 07:14:53;;;;;;;7.18;5.13;;;15.10;47.10;;;;;;5034092;28;20037;-68
2021/10/24 07:17:19;;;;;;;7.82;4.40;;;15.10;46.00;;;;;;5048009;28;20091;-68
2021/10/24 07:19:45;;;;;;;5.78;3.83;;;15.00;46.10;;;;;;5050556;28;20570;-68
2021/10/24 07:22:10;;;;;;;4.78;3.70;;;15.10;46.40;;;;;;5047135;28;20058;-68
2021/10/24 07:24:36;;;;;;;4.40;3.42;;;15.10;46.40;;;;;;5033935;28;20033;-68
2021/10/24 07:27:02;;;;;;;4.63;2.95;;;15.10;45.60;;;;;;5047008;28;20027;-68
2021/10/24 07:29:28;;;;;;;3.92;3.20;;;15.10;46.40;;;;;;5054285;28;20052;-68
2021/10/24 07:31:53;;;;;;;7.32;3.75;;;15.20;46.00;;;;;;5052259;28;20033;-68
2021/10/24 07:34:20;;;;;;;5.20;3.65;;;15.20;45.80;;;;;;5054242;28;20035;-67
2021/10/24 07:36:46;;;;;;;5.00;3.28;;;15.20;45.50;;;;;;5027873;28;20041;-68
2021/10/24 07:39:12;;;;;;;4.13;3.33;;;15.30;45.40;;;;;;5014376;28;20551;-68
2021/10/24 07:41:37;;;;;;;4.65;3.40;;;15.30;45.20;;;;;;5031939;28;20083;-68
2021/10/24 07:44:06;;;;;;;4.10;3.15;;;15.30;44.80;;;;;;5034055;28;20064;-68
2021/10/24 07:46:31;;;;;;;6.22;3.88;;;15.30;44.70;;;;;;5041595;28;20037;-68
2021/10/24 07:48:57;;;;;;;5.32;3.75;;;15.30;44.60;;;;;;5053478;28;20029;-67
2021/10/24 07:51:22;;;;;;;3.72;2.97;;;15.30;43.80;;;;;;5054999;28;20085;-69
2021/10/24 07:53:48;;;;;;;5.60;3.53;;;15.30;44.10;;;;;;5053624;28;20036;-68
2021/10/24 07:56:13;;;;;;;5.38;3.08;;;15.30;43.90;;;;;;5045585;28;20041;-68
2021/10/24 07:58:40;;;;;;;3.30;2.50;;;15.40;44.50;;;;;;5033725;28;20026;-67
2021/10/24 08:01:07;;;;;;;4.43;3.15;;;15.40;44.20;;;;;;5032578;28;20033;-69
2021/10/24 08:03:32;;;;;;;5.63;3.22;;;15.50;44.50;;;;;;5033597;28;20021;-68
2021/10/24 08:05:58;;;;;;;5.05;3.35;;;15.30;43.50;;;;;;5032667;28;20040;-69
2021/10/24 08:08:24;;;;;;;5.47;3.15;;;15.30;43.00;;;;;;5033440;28;20037;-68
2021/10/24 08:10:50;;;;;;;4.35;2.90;;;15.30;43.40;;;;;;5032224;28;20422;-69
2021/10/24 08:13:17;;;;;;;5.75;3.20;;;15.30;43.20;;;;;;5015868;28;20464;-68
2021/10/24 08:15:42;;;;;;;3.78;3.35;;;15.30;43.30;;;;;;5012083;28;20046;-68
2021/10/24 08:18:08;;;;;;;3.28;2.78;;;15.30;43.10;;;;;;5045210;28;20051;-68
2021/10/24 08:20:34;;;;;;;4.07;2.95;;;15.40;43.40;;;;;;5041582;28;20048;-68
2021/10/24 08:23:01;;;;;;;3.65;3.35;;;15.40;42.80;;;;;;5029688;28;20038;-68
2021/10/24 08:25:27;;;;;;;4.78;3.38;;;15.50;42.50;;;;;;5033253;28;20025;-68
2021/10/24 08:27:54;;;;;;;4.35;3.95;;;15.60;43.00;;;;;;5045191;28;20033;-67
2021/10/24 08:30:20;;;;;;;4.90;4.28;;;15.60;42.50;;;;;;5053119;28;20470;-68
2021/10/24 08:32:46;;;;;;;4.97;3.53;;;15.60;42.30;;;;;;5038328;28;20036;-68
2021/10/24 08:35:12;;;;;;;5.50;4.30;;;15.60;42.40;;;;;;5019627;28;20135;-67
2021/10/24 08:37:38;;;;;;;6.97;4.70;;;15.60;41.80;;;;;;5036364;28;20025;-68
2021/10/24 08:40:06;;;;;;;5.55;3.53;;;15.50;42.40;;;;;;5052889;28;20021;-68
2021/10/24 08:42:33;;;;;;;5.85;3.63;;;15.70;41.40;;;;;;5040411;28;20030;-68
2021/10/24 08:45:01;;;;;;;6.85;3.78;;;15.70;42.10;;;;;;5032854;28;20030;-69
2021/10/24 08:47:28;;;;;;;5.85;4.15;;;15.70;42.50;;;;;;5031945;28;20044;-68
2021/10/24 08:49:54;;;;;;;4.60;3.58;;;15.70;41.50;;;;;;5032952;28;20030;-68
2021/10/24 08:52:21;;;;;;;4.35;3.20;;;15.80;41.50;;;;;;5031026;28;20026;-68
2021/10/24 08:54:47;;;;;;;4.75;3.72;;;15.60;41.40;;;;;;5032715;28;20030;-68
2021/10/24 08:57:19;;;;;;;6.00;3.60;;;15.70;41.50;;;;;;5031982;28;20078;-68
2021/10/24 08:59:44;;;;;;;4.38;3.88;;;15.70;41.40;;;;;;5032265;28;20022;-68
2021/10/24 09:02:10;;;;;;;6.82;3.55;;;15.80;40.70;;;;;;5038375;28;20098;-68
2021/10/24 09:04:49;;;;;;;5.20;3.90;;;15.80;40.90;;;;;;5051158;28;20528;-68
2021/10/24 09:07:14;;;;;;;6.40;3.95;;;15.90;40.10;;;;;;5035262;28;20022;-69
2021/10/24 09:09:40;;;;;;;4.20;3.72;;;15.90;40.70;;;;;;5031453;28;20095;-69
2021/10/24 09:15:27;;;;;;;4.20;2.95;;;15.90;40.10;;;;;;5025426;28;20099;-69
2021/10/24 09:18:06;;;;;;;4.70;3.70;;;16.00;40.70;;;;;;5041278;28;20025;-68
2021/10/24 09:20:32;;;;;;;6.90;3.28;;;16.10;40.00;;;;;;5051249;28;20166;-68
2021/10/24 09:23:06;;;;;;;5.38;3.33;;;16.10;39.90;;;;;;5037316;28;20046;-70
2021/10/24 09:25:33;;;;;;;4.93;3.35;;;16.10;38.90;;;;;;5032487;28;20021;-69
2021/10/24 09:28:03;;;;;;;5.40;3.53;;;16.20;40.20;;;;;;5031861;28;20089;-69
2021/10/24 09:30:34;;;;;;;7.20;3.33;;;16.20;39.00;;;;;;5030561;28;20447;-69
2021/10/24 09:33:03;;;;;;;7.80;3.63;;;16.10;38.80;;;;;;5028796;28;20095;-69
2021/10/24 09:36:01;;;;;;;3.50;3.00;;;16.20;38.90;;;;;;5026118;28;20082;-68
2021/10/24 09:38:27;;;;;;;8.10;3.60;;;16.20;39.50;;;;;;5027508;28;20041;-69
2021/10/24 09:40:58;;;;;;;5.22;3.50;;;16.30;39.10;;;;;;5031875;28;20032;-69
2021/10/24 09:43:26;;;;;;;7.18;3.85;;;16.30;39.00;;;;;;5046252;28;20055;-69
2021/10/24 09:45:57;;;;;;;4.50;3.00;;;16.40;38.80;;;;;;5052349;28;20082;-69
2021/10/24 09:48:31;;;;;;;4.65;3.30;;;16.40;37.30;;;;;;5035504;28;20095;-69
2021/10/24 09:51:11;;;;;;;6.38;3.90;;;16.50;37.70;;;;;;5031345;28;20100;-69
2021/10/24 09:53:41;;;;;;;3.83;3.42;;;16.50;37.60;;;;;;5047829;28;20032;-69
2021/10/24 09:56:15;;;;;;;5.60;3.42;;;16.60;37.40;;;;;;5048516;28;20034;-69
2021/10/24 09:58:48;;;;;;;4.32;3.30;;;16.60;38.00;;;;;;5036140;28;20113;-69
2021/10/24 10:01:19;;;;;;;5.97;3.65;;;16.90;37.70;;;;;;5047699;28;20025;-69
2021/10/24 10:03:49;;;;;;;3.95;3.55;;;16.60;36.00;;;;;;5047789;28;20080;-69
2021/10/24 10:06:28;;;;;;;5.25;3.63;;;16.80;37.30;;;;;;5031290;28;20022;-69
2021/10/24 10:08:57;;;;;;;5.45;3.78;;;17.10;37.40;;;;;;5032435;28;20025;-68
2021/10/24 10:11:47;;;;;;;6.45;3.80;;;17.10;37.50;;;;;;5036628;28;20032;-69
2021/10/24 10:14:21;;;;;;;7.57;4.20;;;17.30;37.10;;;;;;5055952;28;20051;-69
2021/10/24 10:16:53;;;;;;;7.65;5.28;;;17.30;36.90;;;;;;5047540;28;20045;-69
2021/10/24 10:19:35;;;;;;;7.65;4.18;;;17.30;36.60;;;;;;5035925;28;20025;-69
2021/10/24 10:22:22;;;;;;;6.07;4.18;;;17.30;36.00;;;;;;5042659;28;20392;-69
2021/10/24 10:25:05;;;;;;;4.07;3.63;;;17.20;35.70;;;;;;5055397;28;20158;-69
2021/10/24 10:27:38;;;;;;;6.10;4.20;;;17.50;36.00;;;;;;5053247;28;20017;-70
2021/10/24 10:30:09;;;;;;;6.03;4.00;;;17.70;36.00;;;;;;5054081;28;20067;-70
2021/10/24 10:32:45;;;;;;;5.68;3.80;;;17.70;35.90;;;;;;5053231;28;20478;-70
2021/10/24 10:35:16;;;;;;;5.82;4.07;;;17.70;35.70;;;;;;5053635;28;20410;-70
2021/10/24 10:38:01;;;;;;;7.03;3.72;;;17.60;35.30;;;;;;5039804;28;20025;-70
2021/10/24 10:40:38;;;;;;;8.23;3.60;;;17.60;34.50;;;;;;5038321;28;20101;-70
2021/10/24 10:43:22;;;;;;;5.03;3.97;;;17.60;35.10;;;;;;5037110;28;20022;-70
2021/10/24 10:45:59;;;;;;;4.97;3.72;;;17.50;35.70;;;;;;5033759;28;20469;-70
2021/10/24 10:48:33;;;;;;;7.13;4.38;;;17.50;35.30;;;;;;5052799;28;20025;-69
2021/10/24 10:51:23;;;;;;;6.97;5.18;;;17.50;35.70;;;;;;5054917;28;20025;-69
2021/10/24 10:53:54;;;;;;;10.15;9.07;;;17.50;35.00;;;;;;5015378;28;20092;-69
2021/10/24 10:56:30;;;;;;;7.28;4.63;;;17.30;36.00;;;;;;5022257;28;20056;-69
2021/10/24 10:59:01;;;;;;;4.78;3.50;;;17.20;33.60;;;;;;5032859;28;20068;-69
2021/10/24 11:01:29;;;;;;;5.90;3.72;;;17.00;35.80;;;;;;5033851;28;20557;-69
2021/10/24 11:03:56;;;;;;;4.55;3.25;;;16.90;36.50;;;;;;5035278;28;20026;-69
2021/10/24 11:06:27;;;;;;;7.10;3.92;;;16.90;37.00;;;;;;5034515;28;20025;-69
2021/10/24 11:08:54;;;;;;;3.90;3.50;;;16.80;36.60;;;;;;5054608;28;20496;-69
2021/10/24 11:11:47;;;;;;;4.00;3.25;;;16.80;36.60;;;;;;5038564;28;20453;-69
2021/10/24 11:14:16;;;;;;;5.53;3.75;;;16.70;36.40;;;;;;5034949;28;20479;-69
2021/10/24 11:17:24;;;;;;;3.80;3.50;;;16.70;37.00;;;;;;5035351;28;20041;-69
2021/10/24 11:19:49;;;;;;;4.95;3.58;;;16.60;35.80;;;;;;5019043;28;20062;-69
2021/10/24 11:22:19;;;;;;;4.20;3.42;;;16.60;37.00;;;;;;5029709;28;20044;-69
2021/10/24 11:24:53;;;;;;;8.57;3.65;;;16.60;36.60;;;;;;5047353;28;20359;-69
2021/10/24 11:27:38;;;;;;;3.63;3.20;;;16.60;35.70;;;;;;5051335;28;20112;-70
2021/10/24 11:30:05;;;;;;;22.08;11.90;;;16.70;36.40;;;;;;5054414;28;20029;-69
2021/10/24 11:32:33;;;;;;;7.18;5.93;;;16.70;37.10;;;;;;5052005;28;20040;-70
2021/10/24 11:35:11;;;;;;;141.50;94.85;;;16.70;36.00;;;;;;5053993;28;20402;-67
2021/10/24 11:37:45;;;;;;;25.98;17.13;;;16.80;37.80;;;;;;5032987;28;20034;-70
2021/10/24 11:40:27;;;;;;;8.40;6.85;;;16.80;36.60;;;;;;5013199;28;20026;-69
2021/10/24 11:43:12;;;;;;;5.85;4.22;;;16.70;36.40;;;;;;5026838;28;20029;-69
2021/10/24 11:45:40;;;;;;;9.63;6.15;;;16.80;36.60;;;;;;5033975;28;20133;-69
2021/10/24 11:48:08;;;;;;;5.82;4.60;;;16.80;36.30;;;;;;5032635;28;20036;-69
2021/10/24 11:50:45;;;;;;;5.97;4.72;;;16.90;36.80;;;;;;5033875;28;20045;-70
2021/10/24 11:53:32;;;;;;;4.32;3.70;;;16.90;36.30;;;;;;5047398;28;20075;-70
2021/10/24 11:56:03;;;;;;;5.30;4.50;;;17.00;37.00;;;;;;5054127;28;20045;-69
2021/10/24 12:01:25;;;;;;;9.32;6.70;;;17.00;36.70;;;;;;5033867;28;20164;-69
2021/10/24 12:04:05;;;;;;;8.57;6.22;;;17.00;36.20;;;;;;5053153;28;20111;-69
2021/10/24 12:06:58;;;;;;;8.25;4.90;;;17.00;35.90;;;;;;5049871;28;20036;-69
2021/10/24 12:09:46;;;;;;;7.65;5.97;;;17.10;35.40;;;;;;5033549;28;20021;-68
2021/10/24 12:12:12;;;;;;;5.80;4.65;;;17.20;35.30;;;;;;5034628;28;20029;-68
2021/10/24 12:14:57;;;;;;;9.60;6.70;;;17.20;35.80;;;;;;5040565;28;20044;-69
2021/10/24 12:17:27;;;;;;;6.82;5.93;;;17.30;34.90;;;;;;5032181;28;20029;-68
2021/10/24 12:20:09;;;;;;;8.02;6.32;;;17.20;35.70;;;;;;5053180;28;20074;-68
2021/10/24 12:22:43;;;;;;;6.82;5.07;;;17.50;35.20;;;;;;5040354;28;20035;-68
2021/10/24 12:25:14;;;;;;;7.03;5.32;;;17.60;36.00;;;;;;5033255;28;20068;-68
2021/10/24 12:27:43;;;;;;;6.88;5.22;;;17.50;35.40;;;;;;5040942;28;20025;-68
2021/10/24 12:30:19;;;;;;;6.30;5.45;;;17.50;35.80;;;;;;5053150;28;20032;-68
2021/10/24 12:32:55;;;;;;;7.30;5.47;;;17.60;35.70;;;;;;5040923;28;20378;-68
2021/10/24 12:35:21;;;;;;;6.78;4.47;;;17.50;34.80;;;;;;5037116;28;20143;-68
2021/10/24 12:38:17;;;;;;;7.18;5.13;;;17.50;35.80;;;;;;5041377;28;20026;-68
2021/10/24 12:40:56;;;;;;;5.65;4.57;;;17.50;35.00;;;;;;5028588;28;20041;-67
2021/10/24 12:43:23;;;;;;;7.05;4.95;;;17.60;36.10;;;;;;5030748;28;20456;-68
2021/10/24 12:46:03;;;;;;;5.95;4.95;;;17.50;35.60;;;;;;5033039;28;20533;-68
2021/10/24 12:48:45;;;;;;;6.00;5.40;;;17.60;35.90;;;;;;5031804;28;20066;-68
2021/10/24 12:51:23;;;;;;;7.82;6.13;;;17.70;35.70;;;;;;5031034;28;20475;-68
2021/10/24 12:53:51;;;;;;;6.93;5.50;;;17.50;34.80;;;;;;5032050;28;20075;-68
2021/10/24 12:56:16;;;;;;;7.38;5.75;;;17.50;35.80;;;;;;5032696;28;20129;-67
2021/10/24 12:58:42;;;;;;;7.47;6.43;;;17.60;36.20;;;;;;5030422;28;20513;-68
2021/10/24 13:01:22;;;;;;;8.15;6.10;;;17.60;35.90;;;;;;5032510;28;20044;-68